sensor_id;sensor_type;location;lat;lon;timestamp;pressure;altitude;pressure_sealevel;temperature;humidity
47154;BME280;32907;41.412;2.164;2023-03-20T00:01:23;101196.06;;;19.89;46.42
47154;BME280;32907;41.412;2.164;2023-03-20T00:03:53;101195.50;;;19.87;46.94
47154;BME280;32907;41.412;2.164;2023-03-20T00:06:25;101218.06;;;20.03;46.45
47154;BME280;32907;41.412;2.164;2023-03-20T00:08:55;101175.63;;;19.76;46.48
47154;BME280;32907;41.412;2.164;2023-03-20T00:11:31;101184.06;;;19.80;47.13
47154;BME280;32907;41.412;2.164;2023-03-20T00:14:03;101206.91;;;19.99;46.81
47154;BME280;32907;41.412;2.164;2023-03-20T00:16:37;101202.28;;;19.95;46.86
47154;BME280;32907;41.412;2.164;2023-03-20T00:19:16;101182.19;;;19.75;47.03
47154;BME280;32907;41.412;2.164;2023-03-20T00:21:45;101204.47;;;19.93;46.83
47154;BME280;32907;41.412;2.164;2023-03-20T00:24:14;101210.47;;;20.00;46.69
47154;BME280;32907;41.412;2.164;2023-03-20T00:26:44;101174.28;;;19.89;46.77
47154;BME280;32907;41.412;2.164;2023-03-20T00:29:24;101189.22;;;19.97;46.84
47154;BME280;32907;41.412;2.164;2023-03-20T00:31:54;101197.38;;;20.02;46.67
47154;BME280;32907;41.412;2.164;2023-03-20T00:34:25;101191.94;;;20.02;46.74
47154;BME280;32907;41.412;2.164;2023-03-20T00:36:54;101201.75;;;19.98;46.46
47154;BME280;32907;41.412;2.164;2023-03-20T00:39:24;101189.22;;;19.92;46.81
47154;BME280;32907;41.412;2.164;2023-03-20T00:44:38;101179.72;;;19.84;46.69
47154;BME280;32907;41.412;2.164;2023-03-20T00:47:19;101181.88;;;19.92;46.68
47154;BME280;32907;41.412;2.164;2023-03-20T00:49:50;101147.31;;;19.72;46.61
47154;BME280;32907;41.412;2.164;2023-03-20T00:52:19;101179.97;;;19.98;46.49
47154;BME280;32907;41.412;2.164;2023-03-20T00:54:50;101115.25;;;19.59;46.44
47154;BME280;32907;41.412;2.164;2023-03-20T00:57:28;101156.84;;;19.85;46.93
47154;BME280;32907;41.412;2.164;2023-03-20T01:00:02;101175.06;;;19.95;46.73
47154;BME280;32907;41.412;2.164;2023-03-20T01:02:32;101171.53;;;19.94;46.64
47154;BME280;32907;41.412;2.164;2023-03-20T01:05:00;101167.19;;;19.93;46.51
47154;BME280;32907;41.412;2.164;2023-03-20T01:07:30;101106.53;;;19.52;46.88
47154;BME280;32907;41.412;2.164;2023-03-20T01:09:58;101119.63;;;19.65;46.75
47154;BME280;32907;41.412;2.164;2023-03-20T01:12:27;101119.59;;;19.70;46.46
47154;BME280;32907;41.412;2.164;2023-03-20T01:14:56;101150.59;;;19.90;46.59
47154;BME280;32907;41.412;2.164;2023-03-20T01:17:26;101089.13;;;19.53;46.79
47154;BME280;32907;41.412;2.164;2023-03-20T01:19:54;101067.09;;;19.24;46.78
47154;BME280;32907;41.412;2.164;2023-03-20T01:22:22;101085.59;;;19.52;46.72
47154;BME280;32907;41.412;2.164;2023-03-20T01:24:51;101148.13;;;19.88;46.35
47154;BME280;32907;41.412;2.164;2023-03-20T01:27:19;101146.50;;;19.87;46.62
47154;BME280;32907;41.412;2.164;2023-03-20T01:29:47;101099.72;;;19.54;46.67
47154;BME280;32907;41.412;2.164;2023-03-20T01:32:17;101140.25;;;19.76;46.49
47154;BME280;32907;41.412;2.164;2023-03-20T01:34:49;101149.50;;;19.86;46.47
47154;BME280;32907;41.412;2.164;2023-03-20T01:37:24;101123.97;;;19.66;46.55
47154;BME280;32907;41.412;2.164;2023-03-20T01:39:54;101151.69;;;19.83;46.71
47154;BME280;32907;41.412;2.164;2023-03-20T01:42:24;101147.88;;;19.84;46.57
47154;BME280;32907;41.412;2.164;2023-03-20T01:44:53;101113.63;;;19.68;46.74
47154;BME280;32907;41.412;2.164;2023-03-20T01:47:23;101128.81;;;19.84;46.85
47154;BME280;32907;41.412;2.164;2023-03-20T01:50:18;101126.38;;;19.83;46.85
47154;BME280;32907;41.412;2.164;2023-03-20T01:53:01;101116.88;;;19.75;46.44
47154;BME280;32907;41.412;2.164;2023-03-20T01:55:41;101078.78;;;19.55;46.55
47154;BME280;32907;41.412;2.164;2023-03-20T01:58:16;101111.44;;;19.75;46.64
47154;BME280;32907;41.412;2.164;2023-03-20T02:00:46;101119.03;;;19.83;46.57
47154;BME280;32907;41.412;2.164;2023-03-20T02:03:20;101070.34;;;19.51;46.68
47154;BME280;32907;41.412;2.164;2023-03-20T02:06:08;101110.88;;;19.78;46.52
47154;BME280;32907;41.412;2.164;2023-03-20T02:08:59;101046.19;;;19.35;46.54
47154;BME280;32907;41.412;2.164;2023-03-20T02:11:31;101093.47;;;19.69;46.52
47154;BME280;32907;41.412;2.164;2023-03-20T02:13:59;101104.34;;;19.74;46.58
47154;BME280;32907;41.412;2.164;2023-03-20T02:16:35;101074.47;;;19.59;46.71
47154;BME280;32907;41.412;2.164;2023-03-20T02:19:30;101102.16;;;19.76;46.44
47154;BME280;32907;41.412;2.164;2023-03-20T02:36:18;101085.88;;;19.66;45.98
47154;BME280;32907;41.412;2.164;2023-03-20T02:55:51;101058.38;;;19.63;46.26
47154;BME280;32907;41.412;2.164;2023-03-20T02:58:23;101031.75;;;19.49;46.47
47154;BME280;32907;41.412;2.164;2023-03-20T03:01:00;101046.16;;;19.65;46.21
47154;BME280;32907;41.412;2.164;2023-03-20T03:03:46;101046.16;;;19.65;46.16
47154;BME280;32907;41.412;2.164;2023-03-20T03:12:07;101012.94;;;19.53;46.18
47154;BME280;32907;41.412;2.164;2023-03-20T03:14:45;100989.31;;;19.38;46.33
47154;BME280;32907;41.412;2.164;2023-03-20T03:17:18;101030.91;;;19.69;46.11
47154;BME280;32907;41.412;2.164;2023-03-20T03:19:51;101027.06;;;19.70;46.37
47154;BME280;32907;41.412;2.164;2023-03-20T03:22:20;101000.97;;;19.54;46.36
47154;BME280;32907;41.412;2.164;2023-03-20T03:24:51;101026.00;;;19.66;46.24
47154;BME280;32907;41.412;2.164;2023-03-20T03:27:27;101022.19;;;19.67;46.07
47154;BME280;32907;41.412;2.164;2023-03-20T03:30:02;101013.50;;;19.60;45.88
47154;BME280;32907;41.412;2.164;2023-03-20T03:32:36;101009.94;;;19.54;46.14
47154;BME280;32907;41.412;2.164;2023-03-20T03:35:14;101005.63;;;19.59;45.97
47154;BME280;32907;41.412;2.164;2023-03-20T03:40:39;101015.66;;;19.63;46.10
47154;BME280;32907;41.412;2.164;2023-03-20T03:43:33;101009.97;;;19.60;45.94
47154;BME280;32907;41.412;2.164;2023-03-20T03:46:08;100997.72;;;19.52;46.05
47154;BME280;32907;41.412;2.164;2023-03-20T03:48:46;101014.59;;;19.59;45.76
47154;BME280;32907;41.412;2.164;2023-03-20T03:51:20;100970.03;;;19.35;46.08
47154;BME280;32907;41.412;2.164;2023-03-20T03:54:41;100979.78;;;19.41;46.21
47154;BME280;32907;41.412;2.164;2023-03-20T03:57:25;101004.78;;;19.53;46.11
47154;BME280;32907;41.412;2.164;2023-03-20T03:59:55;100974.91;;;19.38;46.52
47154;BME280;32907;41.412;2.164;2023-03-20T04:02:25;100917.06;;;19.07;46.41
47154;BME280;32907;41.412;2.164;2023-03-20T04:04:56;100988.47;;;19.48;46.04
47154;BME280;32907;41.412;2.164;2023-03-20T04:07:26;100975.47;;;19.35;45.93
47154;BME280;32907;41.412;2.164;2023-03-20T04:09:54;100955.38;;;19.25;45.61
47154;BME280;32907;41.412;2.164;2023-03-20T04:12:38;100940.16;;;19.19;45.78
47154;BME280;32907;41.412;2.164;2023-03-20T04:15:10;100912.47;;;19.02;45.83
47154;BME280;32907;41.412;2.164;2023-03-20T04:17:39;101012.66;;;19.54;45.66
47154;BME280;32907;41.412;2.164;2023-03-20T04:20:09;101007.22;;;19.54;45.51
47154;BME280;32907;41.412;2.164;2023-03-20T04:22:39;100960.28;;;19.08;45.22
47154;BME280;32907;41.412;2.164;2023-03-20T04:25:22;101008.06;;;19.50;45.77
47154;BME280;32907;41.412;2.164;2023-03-20T04:27:53;100953.75;;;19.14;46.02
47154;BME280;32907;41.412;2.164;2023-03-20T04:30:41;101007.22;;;19.54;45.66
47154;BME280;32907;41.412;2.164;2023-03-20T04:33:16;100964.88;;;19.28;45.41
47154;BME280;32907;41.412;2.164;2023-03-20T04:35:55;101002.59;;;19.55;45.64
47154;BME280;32907;41.412;2.164;2023-03-20T04:38:23;101011.84;;;19.54;45.68
47154;BME280;32907;41.412;2.164;2023-03-20T04:40:53;100988.22;;;19.39;45.19
47154;BME280;32907;41.412;2.164;2023-03-20T04:43:21;100965.97;;;19.22;45.20
47154;BME280;32907;41.412;2.164;2023-03-20T04:45:50;101000.16;;;19.48;45.29
47154;BME280;32907;41.412;2.164;2023-03-20T04:48:18;101002.88;;;19.48;45.22
47154;BME280;32907;41.412;2.164;2023-03-20T04:50:45;100934.47;;;19.06;45.26
47154;BME280;32907;41.412;2.164;2023-03-20T04:53:17;100994.47;;;19.50;45.25
47154;BME280;32907;41.412;2.164;2023-03-20T04:55:49;100977.63;;;19.38;45.13
47154;BME280;32907;41.412;2.164;2023-03-20T04:58:18;100942.88;;;19.14;45.21
47154;BME280;32907;41.412;2.164;2023-03-20T05:00:46;100963.53;;;19.25;45.11
47154;BME280;32907;41.412;2.164;2023-03-20T05:03:14;100917.06;;;19.07;45.35
47154;BME280;32907;41.412;2.164;2023-03-20T05:05:42;100970.56;;;19.42;45.19
47154;BME280;32907;41.412;2.164;2023-03-20T05:08:10;100958.09;;;19.25;45.26
47154;BME280;32907;41.412;2.164;2023-03-20T05:10:39;100980.34;;;19.38;45.21
47154;BME280;32907;41.412;2.164;2023-03-20T05:13:29;100968.41;;;19.34;45.29
47154;BME280;32907;41.412;2.164;2023-03-20T05:16:15;100915.44;;;19.00;45.19
47154;BME280;32907;41.412;2.164;2023-03-20T05:18:54;100986.06;;;19.41;44.69
47154;BME280;32907;41.412;2.164;2023-03-20T05:21:57;100957.81;;;19.27;44.58
47154;BME280;32907;41.412;2.164;2023-03-20T05:24:31;100973.81;;;19.44;44.88
47154;BME280;32907;41.412;2.164;2023-03-20T05:27:02;100983.84;;;19.53;44.54
47154;BME280;32907;41.412;2.164;2023-03-20T05:29:48;100962.97;;;19.34;44.69
47154;BME280;32907;41.412;2.164;2023-03-20T05:32:36;100938.78;;;19.22;44.94
47154;BME280;32907;41.412;2.164;2023-03-20T05:35:28;100934.16;;;19.22;44.90
47154;BME280;32907;41.412;2.164;2023-03-20T05:38:14;100986.88;;;19.57;44.50
47154;BME280;32907;41.412;2.164;2023-03-20T05:40:50;100958.88;;;19.41;45.03
47154;BME280;32907;41.412;2.164;2023-03-20T05:43:57;100943.66;;;19.35;45.66
47154;BME280;32907;41.412;2.164;2023-03-20T05:46:43;100989.03;;;19.60;45.59
47154;BME280;32907;41.412;2.164;2023-03-20T05:49:24;100962.94;;;19.44;45.10
47154;BME280;32907;41.412;2.164;2023-03-20T05:52:04;100933.59;;;19.31;45.15
47154;BME280;32907;41.412;2.164;2023-03-20T05:54:40;100981.44;;;19.57;44.71
47154;BME280;32907;41.412;2.164;2023-03-20T05:57:24;100942.03;;;19.29;44.66
47154;BME280;32907;41.412;2.164;2023-03-20T05:59:52;100945.56;;;19.29;44.19
47154;BME280;32907;41.412;2.164;2023-03-20T06:02:46;100983.03;;;19.53;44.49
47154;BME280;32907;41.412;2.164;2023-03-20T06:05:34;100989.03;;;19.50;44.13
47154;BME280;32907;41.412;2.164;2023-03-20T06:08:03;100990.38;;;19.47;44.30
47154;BME280;32907;41.412;2.164;2023-03-20T06:10:32;100935.56;;;19.10;44.85
47154;BME280;32907;41.412;2.164;2023-03-20T06:13:00;101009.41;;;19.52;44.31
47154;BME280;32907;41.412;2.164;2023-03-20T06:15:30;100980.88;;;19.40;44.46
47154;BME280;32907;41.412;2.164;2023-03-20T06:18:09;101011.34;;;19.57;44.67
47154;BME280;32907;41.412;2.164;2023-03-20T06:20:37;100951.84;;;19.15;44.57
47154;BME280;32907;41.412;2.164;2023-03-20T06:23:04;100976.00;;;19.32;44.46
47154;BME280;32907;41.412;2.164;2023-03-20T06:25:33;100959.44;;;19.23;44.77
47154;BME280;32907;41.412;2.164;2023-03-20T06:28:02;101014.59;;;19.59;44.85
47154;BME280;32907;41.412;2.164;2023-03-20T06:30:30;101001.50;;;19.56;44.75
47154;BME280;32907;41.412;2.164;2023-03-20T06:32:58;101014.84;;;19.63;44.71
47154;BME280;32907;41.412;2.164;2023-03-20T06:35:35;101003.16;;;19.52;44.63
47154;BME280;32907;41.412;2.164;2023-03-20T06:38:03;101014.03;;;19.62;44.44
47154;BME280;32907;41.412;2.164;2023-03-20T06:40:32;101023.00;;;19.68;44.65
47154;BME280;32907;41.412;2.164;2023-03-20T06:43:00;100997.19;;;19.50;44.71
47154;BME280;32907;41.412;2.164;2023-03-20T06:45:39;101008.63;;;19.57;44.78
47154;BME280;32907;41.412;2.164;2023-03-20T06:48:17;101015.13;;;19.61;44.80
47154;BME280;32907;41.412;2.164;2023-03-20T06:50:49;101017.28;;;19.64;44.60
47154;BME280;32907;41.412;2.164;2023-03-20T06:53:18;101040.69;;;19.75;44.71
47154;BME280;32907;41.412;2.164;2023-03-20T06:56:08;101005.06;;;19.51;44.38
47154;BME280;32907;41.412;2.164;2023-03-20T06:58:39;101041.78;;;19.74;44.19
47154;BME280;32907;41.412;2.164;2023-03-20T07:01:09;101049.94;;;19.74;44.29
47154;BME280;32907;41.412;2.164;2023-03-20T07:03:38;101007.50;;;19.48;44.05
47154;BME280;32907;41.412;2.164;2023-03-20T07:06:09;100983.06;;;19.38;43.94
47154;BME280;32907;41.412;2.164;2023-03-20T07:08:39;101045.03;;;19.81;44.59
47154;BME280;32907;41.412;2.164;2023-03-20T07:11:07;101046.91;;;19.86;44.09
47154;BME280;32907;41.412;2.164;2023-03-20T07:13:36;101043.34;;;19.86;43.60
47154;BME280;32907;41.412;2.164;2023-03-20T07:16:18;100972.47;;;19.41;43.58
47154;BME280;32907;41.412;2.164;2023-03-20T07:18:46;101050.66;;;19.95;42.99
47154;BME280;32907;41.412;2.164;2023-03-20T07:21:18;101037.09;;;19.80;42.90
47154;BME280;32907;41.412;2.164;2023-03-20T07:23:47;101056.41;;;19.89;42.80
47154;BME280;32907;41.412;2.164;2023-03-20T07:26:15;101058.81;;;20.00;42.55
47154;BME280;32907;41.412;2.164;2023-03-20T07:28:44;101042.22;;;19.97;42.09
47154;BME280;32907;41.412;2.164;2023-03-20T07:31:23;101054.72;;;20.03;41.74
47154;BME280;32907;41.412;2.164;2023-03-20T07:34:14;101001.00;;;19.59;41.55
47154;BME280;32907;41.412;2.164;2023-03-20T07:36:44;101070.53;;;20.01;41.50
47154;BME280;32907;41.412;2.164;2023-03-20T07:39:17;101014.56;;;19.69;41.63
47154;BME280;32907;41.412;2.164;2023-03-20T07:41:54;101026.25;;;19.75;41.66
47154;BME280;32907;41.412;2.164;2023-03-20T07:44:37;101014.81;;;19.73;41.71
47154;BME280;32907;41.412;2.164;2023-03-20T07:47:09;101043.88;;;19.93;41.85
47154;BME280;32907;41.412;2.164;2023-03-20T07:49:37;101007.75;;;19.72;41.80
47154;BME280;32907;41.412;2.164;2023-03-20T07:52:07;101051.47;;;19.96;41.50
47154;BME280;32907;41.412;2.164;2023-03-20T07:54:35;101012.38;;;19.81;41.71
47154;BME280;32907;41.412;2.164;2023-03-20T07:57:03;101039.25;;;19.98;41.36
47154;BME280;32907;41.412;2.164;2023-03-20T07:59:32;101052.22;;;20.11;41.30
47154;BME280;32907;41.412;2.164;2023-03-20T08:01:59;100978.66;;;19.67;41.51
47154;BME280;32907;41.412;2.164;2023-03-20T08:04:27;100981.91;;;19.69;41.88
47154;BME280;32907;41.412;2.164;2023-03-20T08:06:55;101048.16;;;20.09;41.50
47154;BME280;32907;41.412;2.164;2023-03-20T08:09:24;101021.81;;;19.94;41.51
47154;BME280;32907;41.412;2.164;2023-03-20T08:11:52;100999.28;;;19.83;41.60
47154;BME280;32907;41.412;2.164;2023-03-20T08:14:19;101037.81;;;20.11;41.47
47154;BME280;32907;41.412;2.164;2023-03-20T08:16:47;101035.06;;;20.16;41.73
47154;BME280;32907;41.412;2.164;2023-03-20T08:19:32;101051.34;;;20.26;41.16
47154;BME280;32907;41.412;2.164;2023-03-20T08:22:00;101029.94;;;20.09;41.78
47154;BME280;32907;41.412;2.164;2023-03-20T08:24:29;101050.81;;;20.29;41.67
47154;BME280;32907;41.412;2.164;2023-03-20T08:26:57;101023.66;;;20.09;41.54
47154;BME280;32907;41.412;2.164;2023-03-20T08:29:26;101016.06;;;20.06;41.71
47154;BME280;32907;41.412;2.164;2023-03-20T08:31:54;101026.09;;;20.10;41.53
47154;BME280;32907;41.412;2.164;2023-03-20T08:34:23;101053.50;;;20.34;41.13
47154;BME280;32907;41.412;2.164;2023-03-20T08:36:52;101020.38;;;20.12;41.02
47154;BME280;32907;41.412;2.164;2023-03-20T08:39:20;101020.88;;;20.24;40.87
47154;BME280;32907;41.412;2.164;2023-03-20T08:41:48;101018.69;;;20.26;41.36
47154;BME280;32907;41.412;2.164;2023-03-20T08:44:16;101060.28;;;20.47;40.99
47154;BME280;32907;41.412;2.164;2023-03-20T08:46:44;101052.34;;;20.51;41.45
47154;BME280;32907;41.412;2.164;2023-03-20T08:49:13;100970.91;;;20.00;41.27
47154;BME280;32907;41.412;2.164;2023-03-20T08:51:41;101025.19;;;20.30;41.24
47154;BME280;32907;41.412;2.164;2023-03-20T08:54:09;101030.31;;;20.37;41.35
47154;BME280;32907;41.412;2.164;2023-03-20T08:56:38;101040.91;;;20.49;40.88
47154;BME280;32907;41.412;2.164;2023-03-20T08:59:06;101043.06;;;20.52;40.98
47154;BME280;32907;41.412;2.164;2023-03-20T09:01:34;101046.81;;;20.61;41.27
47154;BME280;32907;41.412;2.164;2023-03-20T09:04:16;101063.16;;;20.61;41.72
47154;BME280;32907;41.412;2.164;2023-03-20T09:06:45;101063.72;;;20.63;41.79
47154;BME280;32907;41.412;2.164;2023-03-20T09:09:13;101070.22;;;20.67;41.95
47154;BME280;32907;41.412;2.164;2023-03-20T09:11:44;100999.53;;;20.36;42.64
47154;BME280;32907;41.412;2.164;2023-03-20T09:14:12;101064.75;;;20.72;42.65
47154;BME280;32907;41.412;2.164;2023-03-20T09:16:41;101052.72;;;20.78;49.93
47154;BME280;32907;41.412;2.164;2023-03-20T09:19:09;101044.47;;;20.88;45.95
47154;BME280;32907;41.412;2.164;2023-03-20T09:21:37;101033.84;;;20.87;44.11
47154;BME280;32907;41.412;2.164;2023-03-20T09:24:06;101042.56;;;20.89;43.38
47154;BME280;32907;41.412;2.164;2023-03-20T09:26:34;101052.56;;;20.99;43.15
47154;BME280;32907;41.412;2.164;2023-03-20T09:29:03;101059.91;;;20.98;41.88
47154;BME280;32907;41.412;2.164;2023-03-20T09:31:31;101055.88;;;20.95;41.07
47154;BME280;32907;41.412;2.164;2023-03-20T09:34:00;101057.50;;;20.91;40.75
47154;BME280;32907;41.412;2.164;2023-03-20T09:36:32;101027.16;;;20.69;40.16
47154;BME280;32907;41.412;2.164;2023-03-20T09:39:02;101000.56;;;20.51;39.56
47154;BME280;32907;41.412;2.164;2023-03-20T09:41:33;101067.66;;;20.86;40.17
47154;BME280;32907;41.412;2.164;2023-03-20T09:50:17;101056.53;;;20.77;38.96
47154;BME280;32907;41.412;2.164;2023-03-20T09:53:10;101056.81;;;20.76;39.14
47154;BME280;32907;41.412;2.164;2023-03-20T09:55:40;101040.53;;;20.65;39.90
47154;BME280;32907;41.412;2.164;2023-03-20T09:58:24;101015.56;;;20.53;39.66
47154;BME280;32907;41.412;2.164;2023-03-20T10:00:57;101031.84;;;20.58;39.60
47154;BME280;32907;41.412;2.164;2023-03-20T10:03:58;101055.72;;;20.77;39.49
47154;BME280;32907;41.412;2.164;2023-03-20T10:06:27;101045.16;;;20.70;39.60
47154;BME280;32907;41.412;2.164;2023-03-20T10:08:55;101020.72;;;20.55;39.38
47154;BME280;32907;41.412;2.164;2023-03-20T10:17:55;101041.81;;;20.78;39.03
47154;BME280;32907;41.412;2.164;2023-03-20T10:20:34;101049.41;;;20.81;39.30
47154;BME280;32907;41.412;2.164;2023-03-20T10:23:15;101040.75;;;20.74;38.63
47154;BME280;32907;41.412;2.164;2023-03-20T10:25:58;100972.59;;;20.35;38.61
47154;BME280;32907;41.412;2.164;2023-03-20T10:28:33;101044.28;;;20.75;38.91
47154;BME280;32907;41.412;2.164;2023-03-20T10:40:07;101003.88;;;20.48;38.13
47154;BME280;32907;41.412;2.164;2023-03-20T10:42:44;100813.44;;;19.23;38.89
47154;BME280;32907;41.412;2.164;2023-03-20T10:47:48;100975.59;;;20.33;39.12
47154;BME280;32907;41.412;2.164;2023-03-20T10:50:23;101022.88;;;20.58;39.69
47154;BME280;32907;41.412;2.164;2023-03-20T10:52:55;101032.03;;;20.72;39.96
47154;BME280;32907;41.412;2.164;2023-03-20T10:55:30;101027.63;;;20.76;40.09
47154;BME280;32907;41.412;2.164;2023-03-20T10:58:08;101002.69;;;20.64;40.71
47154;BME280;32907;41.412;2.164;2023-03-20T11:00:39;101017.91;;;20.70;41.24
47154;BME280;32907;41.412;2.164;2023-03-20T11:03:19;100983.41;;;20.55;41.36
47154;BME280;32907;41.412;2.164;2023-03-20T11:06:01;101018.09;;;20.79;41.41
47154;BME280;32907;41.412;2.164;2023-03-20T11:08:41;101030.31;;;20.86;42.09
47154;BME280;32907;41.412;2.164;2023-03-20T11:11:13;101018.38;;;20.77;42.13
47154;BME280;32907;41.412;2.164;2023-03-20T11:13:42;101027.31;;;20.83;42.30
47154;BME280;32907;41.412;2.164;2023-03-20T11:16:18;100996.63;;;20.72;42.49
47154;BME280;32907;41.412;2.164;2023-03-20T11:18:48;100990.09;;;20.68;42.46
47154;BME280;32907;41.412;2.164;2023-03-20T11:21:19;101025.34;;;20.93;42.49
47154;BME280;32907;41.412;2.164;2023-03-20T11:23:48;100978.94;;;20.70;42.27
47154;BME280;32907;41.412;2.164;2023-03-20T11:26:36;100986.56;;;20.67;42.44
47154;BME280;32907;41.412;2.164;2023-03-20T11:29:07;101004.47;;;20.79;42.71
47154;BME280;32907;41.412;2.164;2023-03-20T11:31:39;101027.78;;;20.95;42.53
47154;BME280;32907;41.412;2.164;2023-03-20T11:36:56;101023.19;;;20.90;41.87
47154;BME280;32907;41.412;2.164;2023-03-20T11:39:37;101027.81;;;20.90;41.90
47154;BME280;32907;41.412;2.164;2023-03-20T11:42:25;101030.53;;;20.90;41.78
47154;BME280;32907;41.412;2.164;2023-03-20T11:45:01;100960.53;;;20.51;41.74
47154;BME280;32907;41.412;2.164;2023-03-20T11:47:33;100986.03;;;20.65;42.02
47154;BME280;32907;41.412;2.164;2023-03-20T11:50:05;100971.13;;;20.53;42.27
47154;BME280;32907;41.412;2.164;2023-03-20T11:52:38;100989.34;;;20.62;42.10
47154;BME280;32907;41.412;2.164;2023-03-20T11:55:24;101015.59;;;20.82;42.60
47154;BME280;32907;41.412;2.164;2023-03-20T11:58:02;101022.16;;;20.81;42.92
47154;BME280;32907;41.412;2.164;2023-03-20T12:00:37;101007.94;;;20.84;43.35
47154;BME280;32907;41.412;2.164;2023-03-20T12:06:18;100997.06;;;20.84;43.69
47154;BME280;32907;41.412;2.164;2023-03-20T12:08:54;100994.31;;;20.84;44.00
47154;BME280;32907;41.412;2.164;2023-03-20T12:11:35;100957.41;;;20.68;45.09
47154;BME280;32907;41.412;2.164;2023-03-20T12:14:11;100959.75;;;20.80;44.93
47154;BME280;32907;41.412;2.164;2023-03-20T12:16:43;100997.00;;;20.94;44.48
47154;BME280;32907;41.412;2.164;2023-03-20T12:19:16;100973.06;;;20.86;44.42
47154;BME280;32907;41.412;2.164;2023-03-20T12:21:54;100984.09;;;21.00;44.49
47154;BME280;32907;41.412;2.164;2023-03-20T12:24:36;100993.91;;;21.01;44.55
47154;BME280;32907;41.412;2.164;2023-03-20T12:27:24;100951.06;;;20.78;44.75
47154;BME280;32907;41.412;2.164;2023-03-20T12:32:52;100937.81;;;20.66;44.75
47154;BME280;32907;41.412;2.164;2023-03-20T12:35:31;100989.28;;;21.02;44.44
47154;BME280;32907;41.412;2.164;2023-03-20T12:38:01;100916.38;;;20.54;44.03
47154;BME280;32907;41.412;2.164;2023-03-20T12:40:40;100929.91;;;20.64;44.49
47154;BME280;32907;41.412;2.164;2023-03-20T12:44:22;100935.56;;;20.73;44.46
47154;BME280;32907;41.412;2.164;2023-03-20T12:46:50;100970.25;;;20.97;44.28
47154;BME280;32907;41.412;2.164;2023-03-20T12:52:28;100960.47;;;20.90;44.03
47154;BME280;32907;41.412;2.164;2023-03-20T13:00:35;100961.34;;;20.86;44.34
47154;BME280;32907;41.412;2.164;2023-03-20T13:03:23;100946.91;;;20.85;44.30
47154;BME280;32907;41.412;2.164;2023-03-20T13:12:11;100937.34;;;20.88;44.01
47154;BME280;32907;41.412;2.164;2023-03-20T13:23:07;100931.63;;;20.84;43.20
47154;BME280;32907;41.412;2.164;2023-03-20T13:25:40;100930.31;;;20.82;42.64
47154;BME280;32907;41.412;2.164;2023-03-20T13:33:45;100899.34;;;20.67;42.82
47154;BME280;32907;41.412;2.164;2023-03-20T13:41:46;100881.97;;;20.63;43.10
47154;BME280;32907;41.412;2.164;2023-03-20T13:44:17;100924.53;;;20.88;43.85
47154;BME280;32907;41.412;2.164;2023-03-20T13:47:08;100878.66;;;20.66;44.50
47154;BME280;32907;41.412;2.164;2023-03-20T13:52:33;100921.16;;;20.97;44.14
47154;BME280;32907;41.412;2.164;2023-03-20T14:00:58;100907.09;;;20.84;43.24
47154;BME280;32907;41.412;2.164;2023-03-20T14:03:36;100915.53;;;20.88;43.55
47154;BME280;32907;41.412;2.164;2023-03-20T14:06:17;100911.47;;;20.85;43.52
47154;BME280;32907;41.412;2.164;2023-03-20T14:08:52;100790.13;;;20.06;43.53
47154;BME280;32907;41.412;2.164;2023-03-20T14:14:02;100913.13;;;20.81;43.55
47154;BME280;32907;41.412;2.164;2023-03-20T14:16:33;100908.53;;;20.77;44.42
47154;BME280;32907;41.412;2.164;2023-03-20T14:21:49;100915.28;;;20.84;45.19
47154;BME280;32907;41.412;2.164;2023-03-20T14:24:19;100898.50;;;20.72;44.77
47154;BME280;32907;41.412;2.164;2023-03-20T14:26:50;100897.63;;;20.77;44.57
47154;BME280;32907;41.412;2.164;2023-03-20T14:29:36;100907.91;;;20.85;44.32
47154;BME280;32907;41.412;2.164;2023-03-20T14:34:51;100919.09;;;20.83;43.83
47154;BME280;32907;41.412;2.164;2023-03-20T14:37:36;100895.78;;;20.72;43.92
47154;BME280;32907;41.412;2.164;2023-03-20T14:42:49;100911.81;;;20.79;44.23
47154;BME280;32907;41.412;2.164;2023-03-20T14:48:04;100904.47;;;20.74;44.44
47154;BME280;32907;41.412;2.164;2023-03-20T14:50:53;100897.41;;;20.73;44.22
47154;BME280;32907;41.412;2.164;2023-03-20T14:53:25;100873.03;;;20.58;44.25
47154;BME280;32907;41.412;2.164;2023-03-20T14:58:41;100906.69;;;20.72;44.47
47154;BME280;32907;41.412;2.164;2023-03-20T15:04:03;100868.19;;;20.50;44.89
47154;BME280;32907;41.412;2.164;2023-03-20T15:06:34;100844.28;;;20.36;45.07
47154;BME280;32907;41.412;2.164;2023-03-20T15:09:10;100892.00;;;20.68;44.80
47154;BME280;32907;41.412;2.164;2023-03-20T15:11:40;100901.78;;;20.69;45.06
47154;BME280;32907;41.412;2.164;2023-03-20T15:14:10;100884.72;;;20.58;45.58
47154;BME280;32907;41.412;2.164;2023-03-20T15:16:44;100837.00;;;20.32;45.41
47154;BME280;32907;41.412;2.164;2023-03-20T15:19:19;100898.53;;;20.67;45.49
47154;BME280;32907;41.412;2.164;2023-03-20T15:21:47;100893.91;;;20.67;45.19
47154;BME280;32907;41.412;2.164;2023-03-20T15:24:24;100879.53;;;20.62;44.94
47154;BME280;32907;41.412;2.164;2023-03-20T15:27:00;100851.31;;;20.48;44.78
47154;BME280;32907;41.412;2.164;2023-03-20T15:29:29;100875.72;;;20.63;44.86
47154;BME280;32907;41.412;2.164;2023-03-20T15:32:01;100883.00;;;20.67;45.30
47154;BME280;32907;41.412;2.164;2023-03-20T15:34:41;100875.94;;;20.66;45.17
47154;BME280;32907;41.412;2.164;2023-03-20T15:37:16;100873.00;;;20.63;45.42
47154;BME280;32907;41.412;2.164;2023-03-20T15:39:50;100888.72;;;20.71;45.36
47154;BME280;32907;41.412;2.164;2023-03-20T15:42:21;100873.00;;;20.63;45.48
47154;BME280;32907;41.412;2.164;2023-03-20T15:44:51;100895.72;;;20.77;45.19